createdAt,value
2022-11-16T00:02:13.931Z,99490.31
2022-11-16T00:04:43.210Z,99491.48
2022-11-16T00:07:12.046Z,99488.58
2022-11-16T00:09:40.905Z,99482.60
2022-11-16T00:12:11.329Z,99471.50
2022-11-16T00:14:40.109Z,99475.88
2022-11-16T00:17:08.971Z,99475.95
2022-11-16T00:19:37.780Z,99472.14
2022-11-16T00:22:06.534Z,99462.70
2022-11-16T00:24:35.668Z,99463.09
2022-11-16T00:27:04.384Z,99465.23
2022-11-16T00:29:33.095Z,99469.69
2022-11-16T00:32:01.824Z,99464.58
2022-11-16T00:34:30.512Z,99461.08
2022-11-16T00:36:59.359Z,99454.09
2022-11-16T00:39:28.181Z,99445.73
2022-11-16T00:41:57.130Z,99442.71
2022-11-16T00:44:25.820Z,99444.16
2022-11-16T00:46:54.562Z,99443.21
2022-11-16T00:49:23.336Z,99444.77
2022-11-16T00:51:52.067Z,99443.59
2022-11-16T00:54:22.471Z,99442.58
2022-11-16T00:56:51.272Z,99442.27
2022-11-16T00:59:20.106Z,99445.40
2022-11-16T01:01:48.924Z,99442.58
2022-11-16T01:04:17.725Z,99439.05
2022-11-16T01:06:46.666Z,99443.20
2022-11-16T01:09:15.583Z,99443.42
2022-11-16T01:12:02.655Z,99434.85
2022-11-16T01:14:31.362Z,99435.77
2022-11-16T01:17:00.515Z,99435.77
2022-11-16T01:19:29.759Z,99434.92
2022-11-16T01:21:58.999Z,99434.02
2022-11-16T01:24:27.876Z,99425.13
2022-11-16T01:26:58.318Z,99419.30
2022-11-16T01:29:30.149Z,99417.08
2022-11-16T01:31:59.271Z,99412.05
2022-11-16T01:34:27.999Z,99407.54
2022-11-16T01:36:56.719Z,99412.61
2022-11-16T01:39:25.513Z,99416.20
2022-11-16T01:41:54.358Z,99418.39
2022-11-16T01:44:34.818Z,99420.23
2022-11-16T01:47:11.191Z,99417.40
2022-11-16T01:49:49.043Z,99415.55
2022-11-16T01:52:22.704Z,99418.75
2022-11-16T01:54:54.466Z,99417.21
2022-11-16T01:57:38.471Z,99413.95
2022-11-16T02:00:10.257Z,99412.85
2022-11-16T02:02:39.189Z,99409.08
2022-11-16T02:05:09.734Z,99407.02
2022-11-16T02:08:19.062Z,99407.44
2022-11-16T02:11:23.239Z,99394.63
2022-11-16T02:14:06.644Z,99388.73
2022-11-16T02:17:18.433Z,99381.66
2022-11-16T02:20:34.179Z,99377.30
2022-11-16T02:24:01.731Z,99375.22
2022-11-16T02:27:16.629Z,99371.69
2022-11-16T02:29:53.409Z,99373.14
2022-11-16T02:32:37.776Z,99377.54
2022-11-16T02:35:24.656Z,99375.50
2022-11-16T02:37:59.935Z,99370.95
2022-11-16T02:40:33.391Z,99363.73
2022-11-16T02:43:10.071Z,99361.96
2022-11-16T02:45:45.699Z,99360.70
2022-11-16T02:48:42.612Z,99365.27
2022-11-16T02:51:11.898Z,99368.85
2022-11-16T02:53:58.261Z,99370.16
2022-11-16T02:56:27.382Z,99366.23
2022-11-16T02:58:59.357Z,99369.55
2022-11-16T03:01:40.045Z,99366.88
2022-11-16T03:04:19.013Z,99367.34
2022-11-16T03:06:50.356Z,99366.23
2022-11-16T03:09:27.311Z,99369.67
2022-11-16T03:12:00.773Z,99374.06
2022-11-16T03:14:46.927Z,99373.90
2022-11-16T03:17:31.641Z,99372.70
2022-11-16T03:20:27.041Z,99368.13
2022-11-16T03:23:01.362Z,99365.97
2022-11-16T03:25:42.246Z,99367.27
2022-11-16T03:28:29.270Z,99364.95
2022-11-16T03:31:15.420Z,99363.85
2022-11-16T03:33:52.442Z,99360.75
2022-11-16T03:36:31.152Z,99362.10
2022-11-16T03:39:11.146Z,99355.86
2022-11-16T03:41:43.666Z,99356.89
2022-11-16T03:44:14.494Z,99355.63
2022-11-16T03:46:45.408Z,99357.52
2022-11-16T03:49:13.780Z,99352.43
2022-11-16T03:51:42.178Z,99354.21
2022-11-16T03:54:10.546Z,99352.70
2022-11-16T03:56:38.862Z,99357.71
2022-11-16T03:59:07.218Z,99350.73
2022-11-16T04:01:38.218Z,99347.44
2022-11-16T04:04:28.680Z,99341.98
2022-11-16T04:07:15.334Z,99342.94
2022-11-16T04:10:02.052Z,99340.58
2022-11-16T04:12:49.155Z,99339.38
2022-11-16T04:15:36.480Z,99337.00
2022-11-16T04:18:24.181Z,99330.77
2022-11-16T04:21:10.969Z,99328.09
2022-11-16T04:23:58.098Z,99329.64
2022-11-16T04:26:45.071Z,99324.90
2022-11-16T04:29:14.162Z,99325.46
2022-11-16T04:32:01.036Z,99327.63
2022-11-16T04:34:47.903Z,99329.69
2022-11-16T04:37:36.710Z,99326.80
2022-11-16T04:40:05.929Z,99324.30
2022-11-16T04:42:34.253Z,99323.71
2022-11-16T04:45:21.143Z,99330.46
2022-11-16T04:47:50.548Z,99329.48
2022-11-16T04:50:20.254Z,99332.80
2022-11-16T04:52:48.686Z,99332.48
2022-11-16T04:55:17.212Z,99327.80
2022-11-16T04:57:45.947Z,99322.80
2022-11-16T05:00:15.208Z,99330.10
2022-11-16T05:02:43.513Z,99324.73
2022-11-16T05:05:12.967Z,99321.44
2022-11-16T05:07:41.449Z,99319.16
2022-11-16T05:10:11.177Z,99317.14
2022-11-16T05:12:40.072Z,99315.64
2022-11-16T05:15:09.526Z,99315.03
2022-11-16T05:17:37.884Z,99316.96
2022-11-16T05:20:25.746Z,99315.31
2022-11-16T05:22:56.403Z,99315.73
2022-11-16T05:25:25.400Z,99311.73
2022-11-16T05:27:53.953Z,99307.90
2022-11-16T05:30:22.418Z,99306.42
2022-11-16T05:32:50.854Z,99305.68
2022-11-16T05:35:19.209Z,99310.64
2022-11-16T05:37:47.491Z,99311.86
2022-11-16T05:40:16.043Z,99311.64
2022-11-16T05:42:44.386Z,99313.06
2022-11-16T05:45:17.170Z,99311.62
2022-11-16T05:47:48.195Z,99310.92
2022-11-16T05:50:16.581Z,99312.02
2022-11-16T05:52:44.907Z,99312.25
2022-11-16T05:55:13.293Z,99314.05
2022-11-16T05:57:41.665Z,99311.08
2022-11-16T06:00:10.934Z,99309.23
2022-11-16T06:02:39.292Z,99306.35
2022-11-16T06:05:08.299Z,99301.97
2022-11-16T06:07:36.827Z,99301.70
2022-11-16T06:10:05.915Z,99297.99
2022-11-16T06:12:34.191Z,99297.07
2022-11-16T06:15:02.622Z,99296.74
2022-11-16T06:17:33.834Z,99291.29
2022-11-16T06:20:02.694Z,99292.63
2022-11-16T06:22:31.023Z,99290.52
2022-11-16T06:24:59.349Z,99287.23
2022-11-16T06:27:27.692Z,99286.29
2022-11-16T06:29:56.077Z,99285.55
2022-11-16T06:32:24.455Z,99291.16
2022-11-16T06:34:52.823Z,99286.41
2022-11-16T06:37:21.099Z,99284.55
2022-11-16T06:39:49.357Z,99279.70
2022-11-16T06:42:17.694Z,99279.05
2022-11-16T06:44:45.975Z,99270.86
2022-11-16T06:47:14.353Z,99271.27
2022-11-16T06:49:42.988Z,99266.09
2022-11-16T06:52:11.291Z,99264.00
2022-11-16T06:54:39.612Z,99265.64
2022-11-16T06:57:07.865Z,99267.13
2022-11-16T06:59:36.165Z,99264.95
2022-11-16T07:02:04.594Z,99267.31
2022-11-16T07:04:33.182Z,99262.27
2022-11-16T07:07:01.685Z,99262.55
2022-11-16T07:09:30.049Z,99260.85
2022-11-16T07:11:58.602Z,99263.00
2022-11-16T07:14:26.857Z,99267.98
2022-11-16T07:16:59.781Z,99265.93
2022-11-16T07:19:29.415Z,99268.87
2022-11-16T07:21:57.855Z,99268.95
2022-11-16T07:24:26.294Z,99271.92
2022-11-16T07:26:54.587Z,99277.79
2022-11-16T07:29:22.911Z,99280.66
2022-11-16T07:31:51.373Z,99278.04
2022-11-16T07:34:19.814Z,99277.76
2022-11-16T07:36:48.117Z,99276.88
2022-11-16T07:39:16.827Z,99274.55
2022-11-16T07:41:46.384Z,99268.08
2022-11-16T07:44:14.736Z,99266.08
2022-11-16T07:46:47.850Z,99264.18
2022-11-16T07:49:19.054Z,99263.59
2022-11-16T07:51:47.464Z,99258.48
2022-11-16T07:54:16.268Z,99262.82
2022-11-16T07:56:44.650Z,99265.64
2022-11-16T08:02:26.506Z,99271.52
2022-11-16T08:04:55.260Z,99267.49
2022-11-16T08:07:23.704Z,99264.11
2022-11-16T08:09:52.337Z,99259.67
2022-11-16T08:12:20.950Z,99261.30
2022-11-16T08:14:49.492Z,99257.63
2022-11-16T08:17:17.917Z,99257.01
2022-11-16T08:19:46.301Z,99261.46
2022-11-16T08:22:14.642Z,99270.14
2022-11-16T08:24:43.006Z,99267.24
2022-11-16T08:27:11.474Z,99266.48
2022-11-16T08:29:40.004Z,99265.39
2022-11-16T08:32:08.443Z,99266.30
2022-11-16T08:34:36.786Z,99263.95
2022-11-16T08:37:05.254Z,99270.28
2022-11-16T08:39:33.617Z,99270.97
2022-11-16T08:42:01.997Z,99270.70
2022-11-16T08:44:30.386Z,99274.61
2022-11-16T08:46:58.743Z,99280.96
2022-11-16T08:49:29.095Z,99281.77
2022-11-16T08:51:57.517Z,99280.77
2022-11-16T08:54:29.464Z,99279.88
2022-11-16T08:56:57.840Z,99281.20
2022-11-16T08:59:26.127Z,99283.06
2022-11-16T09:01:54.504Z,99283.52
2022-11-16T09:04:23.412Z,99287.80
2022-11-16T09:06:53.143Z,99286.52
2022-11-16T09:09:21.518Z,99289.39
2022-11-16T09:11:52.505Z,99291.64
2022-11-16T09:14:22.184Z,99296.14
2022-11-16T09:16:50.660Z,99294.80
2022-11-16T09:19:20.473Z,99294.27
2022-11-16T09:21:48.815Z,99296.91
2022-11-16T09:24:17.400Z,99296.67
2022-11-16T09:26:46.072Z,99299.90
2022-11-16T09:29:15.543Z,99302.04
2022-11-16T09:31:43.965Z,99294.01
2022-11-16T09:34:12.395Z,99296.97
2022-11-16T09:36:40.742Z,99290.85
2022-11-16T09:42:31.353Z,99289.90
2022-11-16T09:45:21.160Z,99293.02
2022-11-16T09:47:56.327Z,99298.30
2022-11-16T09:50:32.811Z,99293.52
2022-11-16T09:53:32.144Z,99295.58
2022-11-16T09:56:25.284Z,99291.27
2022-11-16T09:59:38.754Z,99284.51
2022-11-16T10:02:30.109Z,99284.34
2022-11-16T10:05:27.929Z,99288.23
2022-11-16T10:08:23.186Z,99285.33
2022-11-16T10:11:21.818Z,99277.73
2022-11-16T10:14:19.261Z,99276.55
2022-11-16T10:17:15.763Z,99272.69
2022-11-16T10:19:56.753Z,99268.16
2022-11-16T10:22:51.224Z,99256.70
2022-11-16T10:25:23.102Z,99249.08
2022-11-16T10:28:22.155Z,99252.98
2022-11-16T10:31:14.781Z,99255.52
2022-11-16T10:33:48.011Z,99251.64
2022-11-16T10:36:18.177Z,99248.94
2022-11-16T10:38:46.943Z,99248.75
2022-11-16T10:41:50.207Z,99249.42
2022-11-16T10:44:38.911Z,99243.39
2022-11-16T10:47:20.969Z,99234.98
2022-11-16T10:50:00.696Z,99233.30
2022-11-16T10:52:29.080Z,99233.27
2022-11-16T10:54:57.452Z,99234.38
2022-11-16T10:57:26.555Z,99235.69
2022-11-16T10:59:55.718Z,99235.50
2022-11-16T11:02:36.009Z,99235.12
2022-11-16T11:05:20.121Z,99236.11
2022-11-16T11:08:12.841Z,99237.06
2022-11-16T11:10:42.456Z,99235.45
2022-11-16T11:13:10.760Z,99230.90
2022-11-16T11:15:42.419Z,99225.46
2022-11-16T11:18:23.573Z,99217.95
2022-11-16T11:20:58.087Z,99214.20
2022-11-16T11:23:27.520Z,99215.38
2022-11-16T11:25:59.347Z,99213.66
2022-11-16T11:28:38.394Z,99213.40
2022-11-16T11:31:26.239Z,99212.58
2022-11-16T11:34:01.672Z,99211.91
2022-11-16T11:36:42.055Z,99213.47
2022-11-16T11:39:13.516Z,99213.33
2022-11-16T11:41:45.005Z,99213.80
2022-11-16T11:44:13.271Z,99211.95
2022-11-16T11:49:53.375Z,99215.84
2022-11-16T11:52:35.671Z,99220.34
2022-11-16T11:55:07.596Z,99212.71
2022-11-16T11:57:44.028Z,99213.06
2022-11-16T12:00:14.962Z,99212.59
2022-11-16T12:03:19.075Z,99213.38
2022-11-16T12:06:10.040Z,99210.05
2022-11-16T12:09:23.339Z,99211.59
2022-11-16T12:12:34.371Z,99206.65
2022-11-16T12:15:08.476Z,99203.62
2022-11-16T12:18:07.018Z,99195.50
2022-11-16T12:21:03.470Z,99186.98
2022-11-16T12:24:23.368Z,99184.55
2022-11-16T12:27:15.829Z,99183.27
2022-11-16T12:30:24.411Z,99179.98
2022-11-16T12:33:24.013Z,99175.58
2022-11-16T12:36:08.324Z,99171.70
2022-11-16T12:39:22.853Z,99170.97
2022-11-16T12:42:09.118Z,99174.00
2022-11-16T12:45:09.113Z,99172.73
2022-11-16T12:47:50.265Z,99170.77
2022-11-16T12:50:35.402Z,99169.20
2022-11-16T12:53:38.331Z,99170.50
2022-11-16T12:56:17.969Z,99168.75
2022-11-16T12:59:12.888Z,99170.05
2022-11-16T13:02:00.776Z,99170.32
2022-11-16T13:04:36.819Z,99170.27
2022-11-16T13:07:11.447Z,99173.78
2022-11-16T13:09:47.952Z,99171.27
2022-11-16T13:12:23.364Z,99173.98
2022-11-16T13:14:55.024Z,99174.24
2022-11-16T13:17:37.201Z,99168.80
2022-11-16T13:20:35.079Z,99169.13
2022-11-16T13:23:18.519Z,99167.64
2022-11-16T13:26:00.096Z,99169.04
2022-11-16T13:29:12.815Z,99169.33
2022-11-16T13:32:00.999Z,99173.48
2022-11-16T13:34:33.855Z,99175.84
2022-11-16T13:37:22.073Z,99180.20
2022-11-16T13:40:19.648Z,99177.56
2022-11-16T13:43:17.606Z,99175.75
2022-11-16T13:45:57.864Z,99174.90
2022-11-16T13:48:36.216Z,99179.11
2022-11-16T13:51:17.440Z,99187.47
2022-11-16T13:56:51.835Z,99186.33
2022-11-16T13:59:28.320Z,99183.68
2022-11-16T14:02:22.260Z,99185.41
2022-11-16T14:04:56.890Z,99187.38
2022-11-16T14:07:46.316Z,99191.90
2022-11-16T14:10:34.607Z,99187.58
2022-11-16T14:13:25.927Z,99189.00
2022-11-16T14:16:27.642Z,99185.14
2022-11-16T14:19:00.334Z,99178.52
2022-11-16T14:22:00.403Z,99173.88
2022-11-16T14:24:50.301Z,99173.13
2022-11-16T14:27:49.007Z,99170.27
2022-11-16T14:30:34.765Z,99170.58
2022-11-16T14:33:03.133Z,99169.41
2022-11-16T14:35:37.396Z,99167.72
2022-11-16T14:38:26.577Z,99162.23
2022-11-16T14:40:59.778Z,99163.28
2022-11-16T14:43:38.737Z,99159.89
2022-11-16T14:46:22.753Z,99160.99
2022-11-16T14:48:51.232Z,99165.73
2022-11-16T14:51:26.735Z,99166.50
2022-11-16T14:54:05.059Z,99164.84
2022-11-16T14:56:33.408Z,99164.33
2022-11-16T14:59:03.101Z,99163.13
2022-11-16T15:01:39.699Z,99161.65
2022-11-16T15:04:12.012Z,99160.73
2022-11-16T15:06:48.593Z,99158.34
2022-11-16T15:09:26.272Z,99153.44
2022-11-16T15:12:31.578Z,99155.71
2022-11-16T15:15:11.557Z,99159.14
2022-11-16T15:17:43.611Z,99155.65
2022-11-16T15:20:23.240Z,99160.88
2022-11-16T15:22:54.823Z,99160.21
2022-11-16T15:25:34.716Z,99161.27
2022-11-16T15:28:13.262Z,99158.51
2022-11-16T15:30:45.054Z,99155.60
2022-11-16T15:33:23.523Z,99156.08
2022-11-16T15:35:54.009Z,99154.77
2022-11-16T15:38:31.717Z,99151.59
2022-11-16T15:41:04.387Z,99150.31
2022-11-16T15:44:12.667Z,99153.48
2022-11-16T15:46:39.521Z,99153.91
2022-11-16T15:49:37.324Z,99149.25
2022-11-16T15:52:06.134Z,99149.16
2022-11-16T15:54:54.455Z,99151.32
2022-11-16T15:57:24.946Z,99148.05
2022-11-16T15:59:57.072Z,99148.83
2022-11-16T16:02:28.465Z,99149.55
2022-11-16T16:04:56.866Z,99151.98
2022-11-16T16:07:43.036Z,99152.88
2022-11-16T16:10:32.211Z,99151.31
2022-11-16T16:13:01.767Z,99150.90
2022-11-16T16:15:36.660Z,99149.20
2022-11-16T16:18:39.334Z,99151.30
2022-11-16T16:21:09.806Z,99146.32
2022-11-16T16:23:54.093Z,99149.23
2022-11-16T16:26:23.803Z,99149.05
2022-11-16T16:29:15.760Z,99149.70
2022-11-16T16:31:44.189Z,99151.84
2022-11-16T16:34:12.576Z,99151.63
2022-11-16T16:36:41.389Z,99146.83
2022-11-16T16:39:09.773Z,99144.56
2022-11-16T16:41:39.742Z,99144.17
2022-11-16T16:44:15.245Z,99143.09
2022-11-16T16:54:27.933Z,99147.75
2022-11-16T16:56:57.429Z,99146.15
2022-11-16T16:59:25.800Z,99148.02
2022-11-16T17:01:54.305Z,99150.77
2022-11-16T17:04:22.852Z,99151.58
2022-11-16T17:06:53.161Z,99150.02
2022-11-16T17:09:21.635Z,99150.88
2022-11-16T17:11:49.989Z,99148.20
2022-11-16T17:14:19.831Z,99145.83
2022-11-16T17:16:48.252Z,99148.45
2022-11-16T17:19:16.739Z,99153.73
2022-11-16T17:21:45.099Z,99152.67
2022-11-16T17:24:13.596Z,99152.51
2022-11-16T17:26:42.072Z,99152.36
2022-11-16T17:29:10.371Z,99150.42
2022-11-16T17:31:43.622Z,99149.41
2022-11-16T17:34:13.708Z,99152.64
2022-11-16T17:36:43.744Z,99152.98
2022-11-16T17:39:12.165Z,99153.11
2022-11-16T17:41:40.554Z,99155.51
2022-11-16T17:44:09.309Z,99157.91
2022-11-16T17:46:37.661Z,99157.88
2022-11-16T17:49:06.220Z,99163.00
2022-11-16T17:51:34.744Z,99162.71
2022-11-16T17:54:03.274Z,99161.05
2022-11-16T17:56:31.727Z,99158.86
2022-11-16T17:59:00.137Z,99163.85
2022-11-16T18:01:28.737Z,99164.51
2022-11-16T18:03:57.280Z,99169.73
2022-11-16T18:06:26.598Z,99167.48
2022-11-16T18:08:55.179Z,99168.73
2022-11-16T18:11:26.835Z,99167.45
2022-11-16T18:13:58.576Z,99170.76
2022-11-16T18:16:30.999Z,99169.06
2022-11-16T18:19:07.003Z,99167.52
2022-11-16T18:21:40.452Z,99167.19
2022-11-16T18:24:09.699Z,99169.85
2022-11-16T18:26:40.271Z,99171.52
2022-11-16T18:29:12.796Z,99169.20
2022-11-16T18:31:41.394Z,99171.45
2022-11-16T18:34:14.263Z,99167.05
2022-11-16T18:36:42.733Z,99166.97
2022-11-16T18:39:11.110Z,99162.36
2022-11-16T18:41:48.722Z,99157.23
2022-11-16T18:44:22.176Z,99155.81
2022-11-16T18:46:50.516Z,99152.50
2022-11-16T18:49:19.074Z,99155.86
2022-11-16T18:51:47.447Z,99156.95
2022-11-16T18:54:15.813Z,99157.52
2022-11-16T18:56:44.247Z,99153.11
2022-11-16T18:59:12.654Z,99147.31
2022-11-16T19:01:41.554Z,99144.69
2022-11-16T19:04:10.931Z,99153.52
2022-11-16T19:06:39.648Z,99158.83
2022-11-16T19:09:09.722Z,99161.92
2022-11-16T19:11:38.415Z,99154.88
2022-11-16T19:14:09.815Z,99146.31
2022-11-16T19:16:43.413Z,99142.13
2022-11-16T19:19:15.713Z,99144.29
2022-11-16T19:21:44.094Z,99144.69
2022-11-16T19:24:12.415Z,99142.59
2022-11-16T19:26:40.848Z,99139.77
2022-11-16T19:29:09.306Z,99135.48
2022-11-16T19:31:37.699Z,99136.73
2022-11-16T19:34:10.510Z,99140.02
2022-11-16T19:36:38.860Z,99141.21
2022-11-16T19:39:07.471Z,99143.46
2022-11-16T19:41:35.862Z,99144.79
2022-11-16T19:44:04.233Z,99143.79
2022-11-16T19:46:33.971Z,99144.80
2022-11-16T19:49:02.825Z,99145.27
2022-11-16T19:51:33.563Z,99148.48
2022-11-16T19:54:03.322Z,99151.91
2022-11-16T19:56:31.917Z,99147.98
2022-11-16T19:59:00.277Z,99147.65
2022-11-16T20:01:29.530Z,99147.25
2022-11-16T20:04:00.947Z,99147.85
2022-11-16T20:06:38.601Z,99147.58
2022-11-16T20:09:11.932Z,99147.80
2022-11-16T20:11:41.408Z,99147.85
2022-11-16T20:14:12.296Z,99150.99
2022-11-16T20:16:43.643Z,99151.81
2022-11-16T20:19:12.096Z,99149.52
2022-11-16T20:21:42.575Z,99151.13
2022-11-16T20:24:14.792Z,99149.90
2022-11-16T20:26:47.043Z,99149.59
2022-11-16T20:29:18.347Z,99149.14
2022-11-16T20:31:46.989Z,99149.35
2022-11-16T20:34:17.531Z,99148.54
2022-11-16T20:36:47.680Z,99150.48
2022-11-16T20:39:19.016Z,99150.55
2022-11-16T20:41:48.108Z,99149.75
2022-11-16T20:44:21.028Z,99152.98
2022-11-16T20:46:52.532Z,99152.48
2022-11-16T20:49:21.028Z,99154.70
2022-11-16T20:51:51.054Z,99155.27
2022-11-16T20:54:19.471Z,99157.59
2022-11-16T20:56:49.705Z,99155.54
2022-11-16T20:59:18.969Z,99149.60
2022-11-16T21:01:48.837Z,99153.49
2022-11-16T21:04:17.429Z,99150.11
2022-11-16T21:06:46.065Z,99154.13
2022-11-16T21:09:15.882Z,99150.81
2022-11-16T21:12:02.895Z,99154.75
2022-11-16T21:14:31.229Z,99148.31
2022-11-16T21:16:59.698Z,99144.14
2022-11-16T21:19:28.103Z,99145.81
2022-11-16T21:21:56.395Z,99146.63
2022-11-16T21:24:24.864Z,99146.06
2022-11-16T21:26:53.367Z,99147.57
2022-11-16T21:29:25.904Z,99151.02
2022-11-16T21:31:54.288Z,99151.99
2022-11-16T21:34:24.450Z,99150.01
2022-11-16T21:36:52.940Z,99150.58
2022-11-16T21:39:21.547Z,99149.39
2022-11-16T21:41:49.930Z,99152.52
2022-11-16T21:44:18.353Z,99155.89
2022-11-16T21:46:46.723Z,99153.55
2022-11-16T21:49:15.066Z,99155.34
2022-11-16T21:51:43.393Z,99155.48
2022-11-16T21:54:11.767Z,99153.87
2022-11-16T21:56:40.109Z,99156.58
2022-11-16T21:59:08.434Z,99154.77
2022-11-16T22:01:56.782Z,99156.42
2022-11-16T22:04:43.715Z,99162.77
2022-11-16T22:07:33.704Z,99166.42
2022-11-16T22:10:13.191Z,99166.44
2022-11-16T22:15:46.179Z,99167.05
2022-11-16T22:18:15.557Z,99167.73
2022-11-16T22:20:48.270Z,99163.88
2022-11-16T22:23:22.500Z,99164.52
2022-11-16T22:26:08.445Z,99165.84
2022-11-16T22:28:38.263Z,99160.30
2022-11-16T22:31:14.238Z,99159.23
2022-11-16T22:33:43.190Z,99167.44
2022-11-16T22:36:13.442Z,99169.61
2022-11-16T22:38:42.133Z,99168.92
2022-11-16T22:41:10.998Z,99168.04
2022-11-16T22:43:40.028Z,99171.71
2022-11-16T22:46:11.026Z,99172.65
2022-11-16T22:48:41.278Z,99174.38
2022-11-16T22:51:22.530Z,99175.79
2022-11-16T22:54:00.812Z,99175.39
2022-11-16T22:56:32.520Z,99170.67
2022-11-16T22:59:02.663Z,99173.34
2022-11-16T23:01:32.191Z,99171.33
2022-11-16T23:04:00.901Z,99167.02
2022-11-16T23:06:29.745Z,99160.41
2022-11-16T23:08:58.490Z,99164.11
2022-11-16T23:11:46.316Z,99166.98
2022-11-16T23:14:35.826Z,99166.45
2022-11-16T23:17:04.996Z,99162.81
2022-11-16T23:19:53.052Z,99163.12
2022-11-16T23:22:40.713Z,99159.20
2022-11-16T23:25:30.658Z,99159.08
2022-11-16T23:28:16.547Z,99154.94
2022-11-16T23:30:45.137Z,99150.64
2022-11-16T23:33:14.194Z,99146.22
2022-11-16T23:35:42.896Z,99141.35
2022-11-16T23:38:11.657Z,99145.34
2022-11-16T23:40:40.836Z,99144.98
2022-11-16T23:43:29.701Z,99147.66
2022-11-16T23:45:58.384Z,99146.88
2022-11-16T23:48:27.154Z,99143.95
2022-11-16T23:50:55.870Z,99141.52
2022-11-16T23:53:24.749Z,99138.89
2022-11-16T23:55:53.444Z,99131.53
2022-11-16T23:58:22.160Z,99136.48
